| time (UTC) | temp C | wind direction | speed KPH | gust KPH | rain 1hr cm | rain 24hr cm | rain mn cm | humidity % | barometer mb |
| 20260507112826 | 15 | 117 | 6.4 | 16.1 | 0.00 | 6.40 | 0.05 | 73 | 1013.9 |
| 20260507112326 | 15 | 107 | 11.3 | 19.3 | 0.00 | 6.40 | 0.05 | 72 | 1013.9 |
| 20260507111824 | 15 | 97 | 11.3 | 20.9 | 0.00 | 6.40 | 0.05 | 71 | 1013.9 |
| 20260507111325 | 15 | 131 | 14.5 | 20.9 | 0.00 | 12.80 | 0.05 | 72 | 1013.9 |
| 20260507110823 | 15 | 122 | 11.3 | 19.3 | 0.00 | 12.80 | 0.05 | 72 | 1014.1 |
| 20260507110325 | 15 | 105 | 11.3 | 17.7 | 0.00 | 12.80 | 0.05 | 73 | 1014.1 |
| 20260507105824 | 15 | 86 | 4.8 | 12.9 | 0.00 | 12.80 | 0.05 | 76 | 1014.2 |
| 20260507105322 | 14 | 69 | 3.2 | 9.7 | 0.00 | 12.80 | 0.05 | 73 | 1014.3 |
| 20260507104823 | 13 | 103 | 4.8 | 9.7 | 0.00 | 12.80 | 0.05 | 75 | 1014.2 |
| 20260507104322 | 13 | 89 | 4.8 | 11.3 | 0.00 | 12.80 | 0.05 | 73 | 1014.2 |
| 20260507103821 | 13 | 91 | 4.8 | 12.9 | 0.00 | 12.80 | 0.05 | 74 | 1014.3 |
| 20260507103322 | 13 | 120 | 8.0 | 14.5 | 0.00 | 12.80 | 0.05 | 74 | 1014.3 |
| 20260507102821 | 13 | 51 | 3.2 | 14.5 | 0.00 | 12.80 | 0.05 | 74 | 1014.3 |
| 20260507102321 | 13 | 50 | 6.4 | 12.9 | 0.00 | 12.80 | 0.05 | 72 | 1014.3 |
| 20260507101821 | 14 | 153 | 6.4 | 14.5 | 0.00 | 12.80 | 0.05 | 72 | 1014.3 |
| 20260507101321 | 14 | 109 | 9.7 | 17.7 | 0.00 | 14.71 | 0.05 | 72 | 1014.3 |
| 20260507100820 | 15 | 149 | 11.3 | 17.7 | 0.00 | 14.71 | 0.05 | 71 | 1014.3 |
| 20260507100339 | 15 | 103 | 12.9 | 17.7 | 0.00 | 14.71 | 0.05 | 71 | 1014.3 |
| 20260507095838 | 15 | 102 | 4.8 | 9.7 | 0.00 | 14.71 | 0.05 | 72 | 1014.3 |
| 20260507095334 | 14 | 83 | 3.2 | 11.3 | 0.00 | 14.71 | 0.05 | 75 | 1014.2 |
| 20260507094836 | 14 | 109 | 6.4 | 11.3 | 0.00 | 14.71 | 0.05 | 71 | 1014.3 |
| 20260507094354 | 13 | 170 | 1.6 | 6.4 | 0.00 | 14.71 | 0.05 | 72 | 1014.3 |
| 20260507093833 | 13 | 146 | 3.2 | 4.8 | 0.00 | 14.71 | 0.05 | 73 | 1014.3 |
| 20260507093331 | 13 | 119 | 3.2 | 4.8 | 0.00 | 14.71 | 0.05 | 71 | 1014.3 |
| 20260507092830 | 13 | 132 | 3.2 | 6.4 | 0.00 | 14.71 | 0.05 | 73 | 1014.5 |
| 20260507092330 | 13 | 103 | 3.2 | 9.7 | 0.00 | 14.71 | 0.05 | 72 | 1014.4 |
| 20260507091829 | 13 | 91 | 6.4 | 9.7 | 0.00 | 14.71 | 0.05 | 70 | 1014.4 |
| 20260507091326 | 13 | 90 | 6.4 | 12.9 | 0.00 | 14.91 | 0.05 | 72 | 1014.3 |
| 20260507090844 | 13 | 109 | 8.0 | 12.9 | 0.00 | 14.91 | 0.05 | 71 | 1014.4 |
| 20260507090322 | 14 | 112 | 8.0 | 11.3 | 0.00 | 14.91 | 0.05 | 72 | 1014.3 |
| 20260507085819 | 13 | 114 | 3.2 | 9.7 | 0.00 | 14.91 | 0.05 | 72 | 1014.3 |
| 20260507085510 | 13 | 130 | 4.8 | 9.7 | 0.00 | 14.91 | 0.05 | 77 | 1014.3 |
| 20260507084830 | 12 | 134 | 3.2 | 9.7 | 0.00 | 14.91 | 0.05 | 79 | 1014.3 |
| 20260507084350 | 12 | 107 | 3.2 | 9.7 | 0.00 | 14.91 | 0.05 | 81 | 1014.2 |
| 20260507083828 | 12 | 135 | 4.8 | 6.4 | 0.00 | 14.91 | 0.05 | 80 | 1014.3 |
| 20260507083328 | 12 | 117 | 1.6 | 6.4 | 0.00 | 14.91 | 0.05 | 79 | 1014.3 |
| 20260507082848 | 12 | 112 | 3.2 | 9.7 | 0.00 | 14.91 | 0.05 | 84 | 1014.3 |
| 20260507082346 | 12 | 109 | 4.8 | 12.9 | 0.00 | 14.91 | 0.05 | 82 | 1014.2 |
| 20260507081823 | 12 | 118 | 8.0 | 12.9 | 0.00 | 14.91 | 0.05 | 83 | 1014.2 |
| 20260507081320 | 12 | 105 | 6.4 | 11.3 | 0.00 | 15.49 | 0.05 | 83 | 1014.1 |
| 20260507080817 | 12 | 138 | 3.2 | 6.4 | 0.00 | 15.49 | 0.05 | 84 | 1014.1 |
| 20260507080331 | 12 | 91 | 4.8 | 6.4 | 0.00 | 15.49 | 0.05 | 85 | 1014.0 |
| 20260507075828 | 11 | 117 | 1.6 | 4.8 | 0.00 | 15.49 | 0.05 | 85 | 1014.1 |
| 20260507075328 | 11 | 161 | 3.2 | 3.2 | 0.00 | 15.49 | 0.05 | 85 | 1014.0 |
| 20260507074828 | 11 | 141 | 1.6 | 4.8 | 0.00 | 15.49 | 0.05 | 86 | 1014.0 |
| 20260507074346 | 11 | 140 | 3.2 | 6.4 | 0.00 | 15.49 | 0.05 | 83 | 1014.0 |
| 20260507073822 | 11 | 110 | 4.8 | 6.4 | 0.00 | 15.49 | 0.05 | 85 | 1014.0 |
| 20260507073342 | 11 | 91 | 1.6 | 6.4 | 0.00 | 15.49 | 0.05 | 86 | 1014.0 |
| 20260507072840 | 11 | 136 | 1.6 | 9.7 | 0.00 | 15.49 | 0.05 | 85 | 1013.9 |
| 20260507072342 | 12 | 102 | 6.4 | 9.7 | 0.00 | 15.49 | 0.05 | 84 | 1014.1 |
| 20260507071820 | 11 | 113 | 1.6 | 3.2 | 0.00 | 15.49 | 0.05 | 85 | 1014.0 |
| 20260507071318 | 11 | 128 | 1.6 | 8.0 | 0.00 | 15.60 | 0.05 | 86 | 1014.0 |
| 20260507070818 | 11 | 156 | 3.2 | 8.0 | 0.00 | 15.60 | 0.05 | 88 | 1013.9 |
| 20260507070317 | 11 | 194 | 3.2 | 4.8 | 0.00 | 15.60 | 0.05 | 88 | 1013.8 |
| 20260507065818 | 11 | 134 | 0.0 | 4.8 | 0.00 | 15.60 | 0.05 | 87 | 1013.8 |
| 20260507065316 | 11 | 105 | 3.2 | 4.8 | 0.00 | 15.60 | 0.05 | 86 | 1013.9 |
| 20260507064816 | 11 | 112 | 3.2 | 4.8 | 0.00 | 15.60 | 0.05 | 86 | 1013.9 |
| 20260507064336 | 11 | 137 | 3.2 | 6.4 | 0.00 | 15.60 | 0.05 | 85 | 1013.7 |
| 20260507063814 | 11 | 109 | 4.8 | 8.0 | 0.00 | 15.60 | 0.05 | 82 | 1013.6 |
| 20260507063333 | 11 | 110 | 3.2 | 8.0 | 0.00 | 15.60 | 0.05 | 79 | 1013.7 |
| 20260507062833 | 11 | 169 | 1.6 | 9.7 | 0.00 | 15.60 | 0.05 | 79 | 1013.6 |
| 20260507062331 | 11 | 244 | 4.8 | 12.9 | 0.00 | 15.60 | 0.05 | 81 | 1013.6 |
| 20260507061830 | 10 | 252 | 8.0 | 14.5 | 0.00 | 15.60 | 0.05 | 81 | 1013.7 |
| 20260507061328 | 10 | 246 | 8.0 | 14.5 | 0.00 | 16.41 | 0.05 | 85 | 1013.6 |
| 20260507060828 | 10 | 254 | 6.4 | 12.9 | 0.00 | 16.41 | 0.05 | 87 | 1013.7 |
| 20260507060326 | 10 | 236 | 4.8 | 12.9 | 0.00 | 16.41 | 0.05 | 88 | 1013.7 |
| 20260507055823 | 10 | 243 | 9.7 | 12.9 | 0.00 | 16.41 | 0.05 | 84 | 1013.7 |
| 20260507055321 | 10 | 242 | 6.4 | 8.0 | 0.00 | 16.41 | 0.05 | 86 | 1013.7 |
| 20260507054841 | 10 | 229 | 3.2 | 8.0 | 0.00 | 16.41 | 0.05 | 86 | 1013.7 |
| 20260507054319 | 10 | 208 | 4.8 | 6.4 | 0.00 | 16.41 | 0.05 | 87 | 1013.5 |
| 20260507053820 | 10 | 13 | 0.0 | 4.8 | 0.00 | 16.41 | 0.05 | 83 | 1013.6 |
| 20260507053317 | 10 | 355 | 3.2 | 6.4 | 0.00 | 16.41 | 0.05 | 84 | 1013.5 |
| 20260507052837 | 10 | 244 | 4.8 | 6.4 | 0.00 | 16.41 | 0.05 | 85 | 1013.5 |
| 20260507052334 | 10 | 202 | 3.2 | 6.4 | 0.00 | 16.41 | 0.05 | 87 | 1013.5 |
| 20260507051833 | 10 | 262 | 4.8 | 6.4 | 0.00 | 16.41 | 0.05 | 88 | 1013.4 |
| 20260507051332 | 10 | 261 | 4.8 | 6.4 | 0.00 | 18.39 | 0.05 | 88 | 1013.3 |
| 20260507050831 | 10 | 310 | 3.2 | 6.4 | 0.00 | 18.39 | 0.05 | 87 | 1013.4 |
| 20260507050330 | 10 | 304 | 3.2 | 11.3 | 0.00 | 18.39 | 0.05 | 86 | 1013.3 |
| 20260507045829 | 10 | 240 | 6.4 | 11.3 | 0.00 | 18.39 | 0.05 | 86 | 1013.3 |
| 20260507045329 | 10 | 224 | 4.8 | 8.0 | 0.00 | 18.39 | 0.05 | 85 | 1013.2 |
| 20260507044828 | 10 | 234 | 4.8 | 11.3 | 0.00 | 18.39 | 0.05 | 87 | 1013.3 |
| 20260507044327 | 9 | 278 | 4.8 | 11.3 | 0.00 | 18.39 | 0.05 | 88 | 1013.1 |
| 20260507043827 | 9 | 282 | 3.2 | 6.4 | 0.00 | 18.39 | 0.05 | 88 | 1013.1 |
| 20260507043326 | 9 | 223 | 3.2 | 4.8 | 0.00 | 18.39 | 0.05 | 88 | 1013.0 |
| 20260507042826 | 9 | 270 | 1.6 | 3.2 | 0.00 | 18.39 | 0.05 | 88 | 1012.9 |
| 20260507042325 | 10 | 275 | 0.0 | 4.8 | 0.00 | 18.39 | 0.05 | 88 | 1012.9 |
| 20260507041825 | 10 | 275 | 0.0 | 6.4 | 0.00 | 18.39 | 0.05 | 87 | 1012.9 |
| 20260507041326 | 10 | 282 | 4.8 | 11.3 | 0.00 | 18.59 | 0.05 | 87 | 1012.8 |
| 20260507040826 | 9 | 271 | 8.0 | 11.3 | 0.00 | 18.59 | 0.05 | 87 | 1012.7 |
| 20260507040325 | 9 | 272 | 4.8 | 9.7 | 0.00 | 18.59 | 0.05 | 88 | 1012.8 |
| 20260507035822 | 9 | 288 | 4.8 | 8.0 | 0.00 | 18.59 | 0.05 | 88 | 1012.8 |
| 20260507035323 | 9 | 280 | 6.4 | 8.0 | 0.00 | 18.59 | 0.05 | 88 | 1012.7 |
| 20260507034822 | 9 | 270 | 4.8 | 6.4 | 0.00 | 18.59 | 0.05 | 88 | 1012.8 |
| 20260507034318 | 9 | 285 | 4.8 | 6.4 | 0.00 | 18.59 | 0.05 | 88 | 1012.8 |
| 20260507033816 | 9 | 269 | 3.2 | 6.4 | 0.00 | 18.59 | 0.05 | 88 | 1012.8 |
| 20260507033316 | 9 | 284 | 4.8 | 6.4 | 0.00 | 18.59 | 0.05 | 87 | 1012.8 |
| 20260507032837 | 9 | 311 | 1.6 | 6.4 | 0.00 | 18.59 | 0.05 | 87 | 1012.7 |
| 20260507032336 | 9 | 270 | 3.2 | 6.4 | 0.00 | 18.59 | 0.05 | 88 | 1012.9 |
| 20260507031831 | 9 | 196 | 4.8 | 6.4 | 0.00 | 18.59 | 0.05 | 87 | 1012.9 |
| 20260507031330 | 9 | 355 | 1.6 | 8.0 | 0.00 | 18.59 | 0.05 | 87 | 1012.9 |
| 20260507030851 | 9 | 355 | 4.8 | 8.0 | 0.00 | 18.59 | 0.05 | 87 | 1012.7 |
| 20260507030350 | 9 | 311 | 4.8 | 11.3 | 0.00 | 18.59 | 0.05 | 87 | 1012.8 |
| 20260507025829 | 9 | 298 | 3.2 | 8.0 | 0.00 | 18.59 | 0.05 | 88 | 1012.7 |
| 20260507025326 | 9 | 311 | 4.8 | 8.0 | 0.00 | 18.59 | 0.05 | 88 | 1012.7 |
| 20260507024825 | 9 | 265 | 4.8 | 8.0 | 0.00 | 18.59 | 0.05 | 88 | 1012.6 |
| 20260507024323 | 9 | 261 | 4.8 | 8.0 | 0.10 | 18.59 | 0.05 | 88 | 1012.6 |
| 20260507023822 | 9 | 279 | 3.2 | 6.4 | 0.10 | 18.59 | 0.05 | 88 | 1012.7 |
| 20260507023321 | 9 | 250 | 3.2 | 6.4 | 0.10 | 18.59 | 0.05 | 88 | 1012.6 |
| 20260507022820 | 9 | 275 | 4.8 | 6.4 | 0.10 | 18.59 | 0.05 | 88 | 1012.6 |
| 20260507022318 | 9 | 252 | 4.8 | 6.4 | 0.10 | 18.59 | 0.05 | 89 | 1012.6 |
| 20260507021820 | 9 | 251 | 3.2 | 4.8 | 0.10 | 18.59 | 0.05 | 89 | 1012.6 |
| 20260507021320 | 9 | 282 | 3.2 | 4.8 | 0.10 | 18.59 | 0.05 | 88 | 1012.6 |
| 20260507020819 | 9 | 279 | 0.0 | 4.8 | 0.10 | 18.59 | 0.05 | 88 | 1012.7 |
| 20260507020316 | 9 | 326 | 0.0 | 8.0 | 0.10 | 18.59 | 0.05 | 88 | 1012.6 |
| 20260507015837 | 9 | 61 | 4.8 | 8.0 | 0.10 | 18.59 | 0.05 | 88 | 1012.5 |
| 20260507015315 | 9 | 302 | 3.2 | 6.4 | 0.10 | 18.59 | 0.05 | 88 | 1012.5 |
| 20260507014833 | 9 | 275 | 3.2 | 6.4 | 0.10 | 18.59 | 0.05 | 89 | 1012.4 |
| 20260507014332 | 9 | 277 | 0.0 | 4.8 | 0.00 | 18.49 | 0.03 | 88 | 1012.4 |
| 20260507013853 | 9 | 275 | 3.2 | 6.4 | 0.00 | 18.49 | 0.03 | 88 | 1012.5 |
| 20260507013328 | 9 | 276 | 4.8 | 6.4 | 0.00 | 18.49 | 0.03 | 89 | 1012.5 |
| 20260507012827 | 9 | 14 | 0.0 | 4.8 | 0.00 | 18.49 | 0.03 | 87 | 1012.4 |
| 20260507012326 | 9 | 32 | 3.2 | 4.8 | 0.00 | 18.49 | 0.03 | 88 | 1012.5 |
| 20260507011824 | 9 | 255 | 0.0 | 4.8 | 0.00 | 18.49 | 0.03 | 87 | 1012.4 |
| 20260507011323 | 9 | 304 | 3.2 | 4.8 | 0.00 | 18.49 | 0.03 | 87 | 1012.3 |
| 20260507010821 | 9 | 302 | 3.2 | 4.8 | 0.00 | 18.49 | 0.03 | 88 | 1012.4 |
| 20260507010340 | 9 | 74 | 0.0 | 4.8 | 0.00 | 18.49 | 0.03 | 88 | 1012.4 |
| 20260507005817 | 9 | 331 | 0.0 | 4.8 | 0.00 | 18.49 | 0.03 | 87 | 1012.4 |
| 20260507005315 | 9 | 301 | 0.0 | 6.4 | 0.00 | 18.49 | 0.03 | 88 | 1012.5 |
| 20260507004815 | 9 | 290 | 1.6 | 6.4 | 0.00 | 18.49 | 0.03 | 88 | 1012.4 |
| 20260507004315 | 9 | 254 | 3.2 | 8.0 | 0.00 | 18.49 | 0.03 | 87 | 1012.6 |
| 20260507003815 | 9 | 280 | 6.4 | 11.3 | 0.00 | 18.49 | 0.03 | 87 | 1012.6 |
| 20260507003315 | 9 | 262 | 6.4 | 8.0 | 0.00 | 18.49 | 0.03 | 87 | 1012.7 |
| 20260507002831 | 9 | 285 | 4.8 | 14.5 | 0.10 | 18.49 | 0.03 | 86 | 1012.7 |
| 20260507002329 | 9 | 263 | 9.7 | 12.9 | 0.10 | 18.49 | 0.03 | 87 | 1012.7 |
| 20260507001829 | 9 | 270 | 9.7 | 12.9 | 0.10 | 18.49 | 0.03 | 88 | 1012.7 |
| 20260507001330 | 9 | 272 | 6.4 | 8.0 | 0.10 | 18.59 | 0.03 | 88 | 1012.8 |
| 20260507000829 | 9 | 239 | 6.4 | 8.0 | 0.10 | 18.59 | 0.03 | 87 | 1012.8 |
| 20260507000329 | 9 | 262 | 3.2 | 4.8 | 0.10 | 18.59 | 0.03 | 88 | 1012.8 |
| 20260506235829 | 9 | 344 | 1.6 | 4.8 | 0.10 | 18.59 | 0.03 | 87 | 1012.7 |
| 20260506235343 | 9 | 305 | 1.6 | 3.2 | 0.10 | 18.59 | 0.03 | 87 | 1012.8 |
| 20260506234820 | 9 | 305 | 0.0 | 4.8 | 0.10 | 18.59 | 0.03 | 87 | 1012.7 |
| 20260506234318 | 9 | 315 | 3.2 | 4.8 | 0.10 | 18.59 | 0.03 | 87 | 1012.6 |
| 20260506233818 | 9 | 250 | 3.2 | 6.4 | 0.10 | 18.59 | 0.03 | 87 | 1012.7 |
| 20260506233317 | 9 | 252 | 3.2 | 9.7 | 0.10 | 18.59 | 0.03 | 86 | 1012.7 |
| 20260506232816 | 9 | 261 | 3.2 | 6.4 | 0.00 | 18.49 | 0.00 | 86 | 1012.6 |
| 20260506232336 | 9 | 234 | 3.2 | 9.7 | 0.00 | 18.49 | 0.00 | 87 | 1012.7 |
| 20260506231814 | 9 | 282 | 4.8 | 9.7 | 0.00 | 18.49 | 0.00 | 87 | 1012.8 |
| 20260506231332 | 9 | 293 | 3.2 | 4.8 | 0.00 | 18.49 | 0.00 | 87 | 1012.8 |
| 20260506230830 | 9 | 331 | 0.0 | 4.8 | 0.00 | 18.49 | 0.00 | 86 | 1012.7 |
| 20260506230326 | 9 | 313 | 1.6 | 4.8 | 0.00 | 18.49 | 0.00 | 88 | 1012.6 |
| 20260506225844 | 9 | 264 | 3.2 | 6.4 | 0.00 | 18.49 | 0.00 | 87 | 1012.6 |
| 20260506225324 | 9 | 254 | 4.8 | 8.0 | 0.00 | 18.49 | 0.00 | 87 | 1012.7 |
| 20260506224824 | 9 | 277 | 4.8 | 11.3 | 0.00 | 18.49 | 0.00 | 86 | 1012.6 |
| 20260506224322 | 9 | 260 | 4.8 | 14.5 | 0.00 | 18.49 | 0.00 | 87 | 1012.6 |
| 20260506223821 | 8 | 271 | 9.7 | 12.9 | 0.10 | 18.49 | 0.00 | 88 | 1012.7 |
| 20260506223320 | 8 | 275 | 4.8 | 6.4 | 0.10 | 18.49 | 0.00 | 88 | 1012.7 |
| 20260506222816 | 8 | 303 | 3.2 | 6.4 | 0.10 | 18.49 | 0.00 | 88 | 1012.8 |
| 20260506222314 | 9 | 321 | 4.8 | 6.4 | 0.20 | 18.49 | 0.00 | 88 | 1012.7 |
| 20260506221832 | 9 | 269 | 3.2 | 6.4 | 0.30 | 18.49 | 0.00 | 88 | 1012.8 |
| 20260506221313 | 9 | 294 | 4.8 | 6.4 | 0.30 | 20.09 | 3.71 | 88 | 1012.8 |
| 20260506220813 | 9 | 292 | 3.2 | 6.4 | 0.30 | 20.09 | 3.71 | 88 | 1012.8 |
| 20260506220312 | 9 | 229 | 4.8 | 6.4 | 0.30 | 20.09 | 3.71 | 87 | 1012.8 |
| 20260506215832 | 9 | 303 | 3.2 | 6.4 | 0.30 | 20.09 | 3.71 | 85 | 1012.8 |
| 20260506215331 | 9 | 329 | 1.6 | 3.2 | 0.30 | 20.09 | 3.71 | 85 | 1012.9 |
| 20260506214850 | 9 | 339 | 1.6 | 8.0 | 0.30 | 20.09 | 3.71 | 85 | 1012.9 |
| 20260506214329 | 9 | 300 | 4.8 | 6.4 | 0.30 | 20.09 | 3.71 | 87 | 1012.8 |
| 20260506213848 | 9 | 289 | 1.6 | 6.4 | 0.20 | 19.99 | 3.68 | 88 | 1012.9 |
| 20260506213326 | 9 | 279 | 0.0 | 6.4 | 0.20 | 19.99 | 3.68 | 87 | 1012.8 |
| 20260506212825 | 9 | 258 | 4.8 | 8.0 | 0.20 | 19.99 | 3.68 | 88 | 1013.0 |
| 20260506212325 | 10 | 280 | 4.8 | 12.9 | 0.10 | 19.89 | 3.66 | 88 | 1012.8 |
| 20260506211844 | 9 | 290 | 9.7 | 12.9 | 0.00 | 19.81 | 3.63 | 87 | 1012.9 |
| 20260506211321 | 10 | 261 | 9.7 | 12.9 | 0.00 | 19.89 | 3.63 | 88 | 1012.9 |
| 20260506210821 | 10 | 263 | 8.0 | 11.3 | 0.00 | 19.89 | 3.63 | 87 | 1012.8 |
| 20260506210322 | 10 | 282 | 6.4 | 11.3 | 0.00 | 19.89 | 3.63 | 87 | 1012.8 |
| 20260506205820 | 10 | 300 | 6.4 | 11.3 | 0.00 | 19.89 | 3.63 | 86 | 1012.9 |
| 20260506205320 | 10 | 84 | 4.8 | 8.0 | 0.00 | 19.89 | 3.63 | 84 | 1012.8 |
| 20260506204820 | 10 | 266 | 3.2 | 8.0 | 0.00 | 19.89 | 3.63 | 85 | 1012.8 |
| 20260506204320 | 10 | 259 | 4.8 | 12.9 | 0.00 | 19.89 | 3.63 | 84 | 1012.9 |
| 20260506203820 | 10 | 355 | 3.2 | 14.5 | 0.00 | 19.89 | 3.63 | 83 | 1012.9 |
| 20260506203318 | 10 | 5 | 6.4 | 16.1 | 0.00 | 19.89 | 3.63 | 82 | 1012.8 |
| 20260506202819 | 10 | 38 | 4.8 | 19.3 | 0.00 | 19.89 | 3.63 | 84 | 1012.8 |
| 20260506202319 | 10 | 275 | 1.6 | 4.8 | 0.00 | 19.89 | 3.63 | 88 | 1012.8 |
| 20260506201819 | 10 | 229 | 1.6 | 8.0 | 0.00 | 19.89 | 3.63 | 88 | 1012.7 |
| 20260506201319 | 10 | 224 | 6.4 | 9.7 | 0.00 | 19.99 | 3.63 | 88 | 1012.5 |
| 20260506200838 | 10 | 90 | 0.0 | 4.8 | 0.00 | 19.99 | 3.63 | 89 | 1012.6 |
| 20260506200317 | 10 | 90 | 3.2 | 6.4 | 0.00 | 19.99 | 3.63 | 89 | 1012.6 |
| 20260506195816 | 10 | 33 | 3.2 | 6.4 | 0.00 | 19.99 | 3.63 | 89 | 1012.6 |
| 20260506195336 | 10 | 232 | 1.6 | 6.4 | 0.00 | 19.99 | 3.63 | 87 | 1012.5 |
| 20260506194816 | 10 | 80 | 3.2 | 9.7 | 0.00 | 19.99 | 3.63 | 87 | 1012.3 |
| 20260506194316 | 10 | 298 | 4.8 | 9.7 | 0.00 | 19.99 | 3.63 | 86 | 1012.4 |
| 20260506193814 | 10 | 17 | 4.8 | 9.7 | 0.00 | 19.99 | 3.63 | 85 | 1012.2 |
| 20260506193312 | 10 | 53 | 3.2 | 9.7 | 0.00 | 19.99 | 3.63 | 86 | 1012.0 |
| 20260506192814 | 10 | 294 | 4.8 | 8.0 | 0.00 | 19.99 | 3.63 | 86 | 1012.1 |
| 20260506192332 | 10 | 285 | 4.8 | 16.1 | 0.00 | 19.99 | 3.63 | 85 | 1012.1 |
| 20260506191830 | 10 | 229 | 8.0 | 19.3 | 0.00 | 19.99 | 3.63 | 85 | 1012.1 |
| 20260506191329 | 10 | 269 | 11.3 | 19.3 | 0.00 | 19.99 | 3.63 | 87 | 1012.0 |
| 20260506190830 | 10 | 219 | 6.4 | 12.9 | 0.00 | 19.99 | 3.63 | 85 | 1011.9 |
| 20260506190326 | 10 | 26 | 4.8 | 9.7 | 0.00 | 19.99 | 3.63 | 84 | 1012.0 |
| 20260506185828 | 10 | 360 | 3.2 | 14.5 | 0.10 | 19.99 | 3.63 | 83 | 1011.9 |
| 20260506185326 | 10 | 322 | 8.0 | 14.5 | 0.61 | 19.99 | 3.63 | 82 | 1011.7 |
| 20260506184826 | 10 | 281 | 4.8 | 14.5 | 0.89 | 19.99 | 3.63 | 82 | 1011.8 |
| 20260506184325 | 10 | 204 | 4.8 | 12.9 | 0.99 | 19.99 | 3.63 | 85 | 1011.8 |
| 20260506183842 | 10 | 329 | 6.4 | 12.9 | 1.50 | 19.99 | 3.63 | 89 | 1011.6 |
| 20260506183322 | 10 | 267 | 3.2 | 11.3 | 2.90 | 19.99 | 3.63 | 90 | 1011.6 |
| 20260506182822 | 10 | 95 | 1.6 | 11.3 | 4.09 | 19.99 | 3.63 | 90 | 1011.4 |
| 20260506182320 | 10 | 86 | 1.6 | 11.3 | 5.59 | 19.99 | 3.63 | 91 | 1011.4 |
| 20260506181817 | 9 | 258 | 8.0 | 11.3 | 5.69 | 19.99 | 3.63 | 91 | 1011.3 |
| 20260506181315 | 10 | 261 | 4.8 | 8.0 | 5.69 | 19.99 | 3.63 | 91 | 1011.2 |
| 20260506180833 | 10 | 273 | 6.4 | 9.7 | 5.79 | 19.99 | 3.63 | 90 | 1011.4 |
| 20260506180353 | 10 | 188 | 1.6 | 9.7 | 5.79 | 19.99 | 3.63 | 89 | 1011.3 |
| 20260506175851 | 10 | 26 | 3.2 | 17.7 | 5.69 | 19.89 | 3.63 | 89 | 1011.0 |
| 20260506175330 | 10 | 316 | 9.7 | 22.5 | 5.21 | 19.41 | 3.53 | 88 | 1011.0 |
| 20260506174848 | 9 | 265 | 16.1 | 22.5 | 4.80 | 19.00 | 3.43 | 88 | 1010.8 |
| 20260506174347 | 9 | 257 | 17.7 | 27.4 | 4.80 | 19.00 | 3.43 | 87 | 1010.7 |
| 20260506173823 | 9 | 255 | 17.7 | 27.4 | 4.19 | 18.39 | 3.33 | 86 | 1010.5 |
| 20260506173322 | 10 | 246 | 17.7 | 27.4 | 2.69 | 16.89 | 3.02 | 83 | 1010.4 |
| 20260506172842 | 12 | 14 | 14.5 | 27.4 | 1.40 | 15.60 | 2.77 | 76 | 1010.4 |
| 20260506172319 | 12 | 269 | 19.3 | 27.4 | 0.20 | 14.40 | 2.51 | 76 | 1009.9 |
| 20260506171817 | 12 | 226 | 6.4 | 12.9 | 0.10 | 14.30 | 2.49 | 77 | 1009.5 |
| 20260506171336 | 12 | 79 | 8.0 | 12.9 | 0.10 | 14.30 | 2.49 | 86 | 1009.1 |
| 20260506170817 | 12 | 306 | 8.0 | 12.9 | 0.00 | 14.20 | 2.49 | 88 | 1009.4 |
| 20260506170336 | 12 | 296 | 4.8 | 6.4 | 0.00 | 14.20 | 2.49 | 88 | 1009.1 |
| 20260506165814 | 12 | 189 | 3.2 | 4.8 | 0.00 | 14.20 | 2.49 | 87 | 1008.7 |
| 20260506165314 | 12 | 109 | 0.0 | 9.7 | 0.00 | 14.20 | 2.49 | 87 | 1008.5 |
| 20260506164832 | 12 | 90 | 1.6 | 12.9 | 0.00 | 14.20 | 2.49 | 86 | 1008.4 |
| 20260506164330 | 12 | 224 | 8.0 | 12.9 | 0.00 | 14.20 | 2.49 | 87 | 1008.6 |
| 20260506163829 | 12 | 42 | 3.2 | 8.0 | 0.00 | 14.20 | 2.49 | 86 | 1008.8 |
| 20260506163348 | 12 | 327 | 4.8 | 9.7 | 0.00 | 14.20 | 2.49 | 86 | 1008.8 |
| 20260506162825 | 12 | 238 | 6.4 | 9.7 | 0.00 | 14.20 | 2.49 | 87 | 1008.7 |
| 20260506162324 | 12 | 257 | 1.6 | 4.8 | 0.00 | 14.20 | 2.49 | 88 | 1008.6 |
| 20260506161823 | 12 | 184 | 3.2 | 6.4 | 0.00 | 14.20 | 2.49 | 85 | 1008.8 |
| 20260506161322 | 12 | 277 | 1.6 | 6.4 | 0.00 | 14.91 | 2.49 | 85 | 1008.8 |
| 20260506160822 | 12 | 252 | 3.2 | 6.4 | 0.00 | 14.91 | 2.49 | 87 | 1009.0 |
| 20260506160322 | 13 | 250 | 4.8 | 6.4 | 0.00 | 14.91 | 2.49 | 88 | 1009.1 |
| 20260506155823 | 13 | 166 | 3.2 | 6.4 | 0.00 | 14.91 | 2.49 | 86 | 1009.1 |
| 20260506155336 | 13 | 327 | 1.6 | 3.2 | 0.00 | 14.91 | 2.49 | 84 | 1008.9 |
| 20260506154834 | 13 | 285 | 0.0 | 4.8 | 0.00 | 14.91 | 2.49 | 86 | 1008.8 |
| 20260506154353 | 13 | 302 | 1.6 | 4.8 | 0.00 | 14.91 | 2.49 | 86 | 1008.8 |
| 20260506153830 | 13 | 194 | 1.6 | 4.8 | 0.00 | 14.91 | 2.49 | 86 | 1008.9 |
| 20260506153327 | 13 | 169 | 3.2 | 4.8 | 0.00 | 14.91 | 2.49 | 86 | 1009.0 |
| 20260506152825 | 13 | 83 | 1.6 | 4.8 | 0.00 | 14.91 | 2.49 | 86 | 1008.9 |
| 20260506152324 | 12 | 38 | 3.2 | 4.8 | 0.00 | 14.91 | 2.49 | 87 | 1009.0 |
| 20260506151821 | 12 | 107 | 1.6 | 4.8 | 0.00 | 14.91 | 2.49 | 87 | 1009.0 |
| 20260506151340 | 12 | 148 | 1.6 | 3.2 | 0.00 | 15.39 | 2.49 | 85 | 1009.1 |
| 20260506150819 | 12 | 232 | 0.0 | 4.8 | 0.00 | 15.39 | 2.49 | 86 | 1009.2 |
| 20260506150338 | 12 | 185 | 3.2 | 6.4 | 0.00 | 15.39 | 2.49 | 88 | 1009.4 |
| 20260506145814 | 12 | 175 | 1.6 | 6.4 | 0.00 | 15.39 | 2.49 | 87 | 1009.4 |
| 20260506145331 | 12 | 257 | 3.2 | 4.8 | 0.00 | 15.39 | 2.49 | 87 | 1009.4 |
| 20260506144832 | 12 | 205 | 3.2 | 6.4 | 0.00 | 15.39 | 2.49 | 87 | 1009.5 |
| 20260506144331 | 12 | 244 | 4.8 | 8.0 | 0.00 | 15.39 | 2.49 | 87 | 1009.6 |
| 20260506143829 | 12 | 165 | 3.2 | 8.0 | 0.00 | 15.39 | 2.49 | 88 | 1009.7 |
| 20260506143327 | 12 | 175 | 0.0 | 4.8 | 0.00 | 15.39 | 2.49 | 87 | 1009.8 |
| 20260506142825 | 12 | 109 | 3.2 | 4.8 | 0.00 | 15.39 | 2.49 | 88 | 1010.0 |
| 20260506142323 | 12 | 175 | 1.6 | 3.2 | 0.00 | 15.39 | 2.49 | 86 | 1010.0 |
| 20260506141821 | 12 | 175 | 1.6 | 4.8 | 0.00 | 15.39 | 2.49 | 87 | 1010.1 |
| 20260506141341 | 12 | 316 | 1.6 | 4.8 | 0.00 | 15.90 | 2.49 | 87 | 1010.1 |
| 20260506140837 | 12 | 167 | 0.0 | 3.2 | 0.00 | 15.90 | 2.49 | 89 | 1010.2 |
| 20260506140315 | 12 | 164 | 1.6 | 4.8 | 0.00 | 15.90 | 2.49 | 89 | 1010.2 |
| 20260506135816 | 11 | 190 | 3.2 | 4.8 | 0.00 | 15.90 | 2.49 | 90 | 1010.4 |
| 20260506135316 | 11 | 123 | 3.2 | 6.4 | 0.00 | 15.90 | 2.49 | 91 | 1010.3 |
| 20260506134815 | 11 | 171 | 4.8 | 6.4 | 0.00 | 15.90 | 2.49 | 92 | 1010.3 |
| 20260506134331 | 11 | 207 | 4.8 | 4.8 | 0.00 | 15.90 | 2.49 | 91 | 1010.4 |
| 20260506133829 | 11 | 193 | 4.8 | 4.8 | 0.00 | 15.90 | 2.49 | 93 | 1010.5 |
| 20260506133348 | 11 | 244 | 3.2 | 4.8 | 0.00 | 15.90 | 2.49 | 93 | 1010.4 |
| 20260506132825 | 11 | 239 | 4.8 | 6.4 | 0.00 | 15.90 | 2.49 | 93 | 1010.6 |
| 20260506132324 | 11 | 212 | 3.2 | 6.4 | 0.00 | 15.90 | 2.49 | 94 | 1010.6 |
| 20260506131824 | 11 | 144 | 3.2 | 4.8 | 0.00 | 15.90 | 2.49 | 95 | 1010.6 |
| 20260506131324 | 11 | 227 | 4.8 | 6.4 | 0.00 | 16.61 | 2.49 | 96 | 1010.5 |
| 20260506130822 | 11 | 205 | 4.8 | 6.4 | 0.00 | 16.61 | 2.49 | 96 | 1010.6 |
| 20260506130320 | 11 | 222 | 3.2 | 8.0 | 0.00 | 16.61 | 2.49 | 96 | 1010.5 |
| 20260506125817 | 10 | 220 | 3.2 | 8.0 | 0.00 | 16.61 | 2.49 | 96 | 1010.6 |
| 20260506125337 | 10 | 194 | 1.6 | 3.2 | 0.00 | 16.61 | 2.49 | 96 | 1010.6 |
| 20260506124815 | 10 | 306 | 0.0 | 3.2 | 0.00 | 16.61 | 2.49 | 96 | 1010.6 |
| 20260506124316 | 10 | 232 | 1.6 | 4.8 | 0.00 | 16.61 | 2.49 | 96 | 1010.6 |
| 20260506123816 | 10 | 190 | 3.2 | 4.8 | 0.00 | 16.61 | 2.49 | 96 | 1010.7 |
| 20260506123316 | 10 | 162 | 3.2 | 6.4 | 0.00 | 16.61 | 2.49 | 96 | 1010.6 |
| 20260506122816 | 10 | 103 | 4.8 | 6.4 | 0.00 | 16.61 | 2.49 | 96 | 1010.8 |
| 20260506122315 | 10 | 163 | 3.2 | 6.4 | 0.00 | 16.61 | 2.49 | 96 | 1010.7 |
| 20260506121830 | 11 | 95 | 3.2 | 6.4 | 0.10 | 16.61 | 2.49 | 96 | 1010.7 |
| 20260506121351 | 10 | 112 | 4.8 | 6.4 | 0.20 | 16.79 | 2.49 | 96 | 1010.8 |
| 20260506120830 | 10 | 191 | 0.0 | 4.8 | 0.51 | 16.79 | 2.49 | 96 | 1010.8 |
| 20260506120330 | 10 | 158 | 4.8 | 6.4 | 0.71 | 16.79 | 2.49 | 96 | 1010.8 |
| 20260506115831 | 10 | 125 | 3.2 | 6.4 | 0.99 | 16.79 | 2.49 | 96 | 1010.9 |
| 20260506115330 | 10 | 119 | 3.2 | 6.4 | 1.30 | 16.79 | 2.49 | 96 | 1010.9 |
| 20260506114830 | 10 | 146 | 3.2 | 4.8 | 1.70 | 16.79 | 2.49 | 96 | 1010.9 |
| 20260506114330 | 10 | 115 | 1.6 | 4.8 | 1.91 | 16.79 | 2.49 | 97 | 1010.9 |
| 20260506113829 | 10 | 180 | 1.6 | 3.2 | 2.39 | 16.79 | 2.49 | 96 | 1010.9 |
| 20260506113326 | 10 | 140 | 0.0 | 3.2 | 2.79 | 16.79 | 2.49 | 96 | 1010.9 |